首页
METAR-TAF:

METAR-TAF

机场 :

基韋斯特, 佛罗里达州, 美国

纬度: 24-34-46N, 经度: 081-41-02W, 海拔: 1米

当前天气观测

该预报发布于52分钟前的22:53 UTC
风速11节,风向东转东南,有时为16节阵风
温度 34°C
湿度 67%
气压 1016 hPa
能見度: 16.1公里
散云层高于2200英尺
散云层高于25000英尺

METAR: KNQX 152253Z 11011G16KT 10SM SCT022 SCT250 34/27 A2999 RMK AO2 SLP154 T03390272 $

时间: 19:45 (23:45 UTC)

预报

预报有效从15日的 23点(UTC)到 16日的 23点(UTC)
风速10节,风向东转东南
能见度10公里或以上
散云层高于2500英尺
散云层高于25000英尺
附近有阵雨
从 16日的 0400点(UTC)
风速11节,风向东转东南
能见度10公里或以上
少量云层高于2000英尺
散云层高于25000英尺
从 16日的 1200点(UTC)
风速10节,风向
能見度: 1610
少量云层高于2500英尺
多云层高于25000英尺
附近有阵雨,

TAF: KNQX 1523/1623 12010KT 9999 VCSH SCT025 SCT250 QNH2994INS FM160400 12011KT 9999 FEW020 SCT250 QNH2995INS FM161200 10010KT 9999 VCSH FEW025 BKN250 QNH2998INS AUTOMATED SENSOR METWATCH 1602 TIL 1610 TX34/1519Z TN30/1611Z FN20109

超过4000个机场的气象观测和天气预报(METAR&TAF报告)。

可查询的气象台以黄色和红色小点在地图上表示。

将鼠标移到小点上方,可查看气象台名称。

然后点击查看天气观测和预报。

如需切换地图:点击带黑十字的绿色按钮放大地图;点击带横线的绿色按钮缩小地图;或者点击绿色箭头查看邻近地区的地图。


METAR-TAF: